sensor_id;sensor_type;location;lat;lon;timestamp;P1;durP1;ratioP1;P2;durP2;ratioP2
2656;SDS011;1338;48.176;11.792;2022-07-12T00:00:07;6.90;;;5.50;;
2656;SDS011;1338;48.176;11.792;2022-07-12T00:02:36;6.13;;;5.63;;
2656;SDS011;1338;48.176;11.792;2022-07-12T00:05:05;6.00;;;5.50;;
2656;SDS011;1338;48.176;11.792;2022-07-12T00:07:35;5.57;;;5.17;;
2656;SDS011;1338;48.176;11.792;2022-07-12T00:10:03;7.03;;;6.43;;
2656;SDS011;1338;48.176;11.792;2022-07-12T00:12:32;8.03;;;7.30;;
2656;SDS011;1338;48.176;11.792;2022-07-12T00:15:00;6.40;;;5.90;;
2656;SDS011;1338;48.176;11.792;2022-07-12T00:17:28;6.30;;;5.80;;
2656;SDS011;1338;48.176;11.792;2022-07-12T00:19:56;7.23;;;6.67;;
2656;SDS011;1338;48.176;11.792;2022-07-12T00:22:24;7.47;;;6.77;;
2656;SDS011;1338;48.176;11.792;2022-07-12T00:24:56;6.77;;;6.20;;
2656;SDS011;1338;48.176;11.792;2022-07-12T00:27:24;6.70;;;6.20;;
2656;SDS011;1338;48.176;11.792;2022-07-12T00:29:52;7.10;;;6.50;;
2656;SDS011;1338;48.176;11.792;2022-07-12T00:32:20;7.10;;;6.53;;
2656;SDS011;1338;48.176;11.792;2022-07-12T00:34:49;6.77;;;6.17;;
2656;SDS011;1338;48.176;11.792;2022-07-12T00:37:17;6.00;;;5.43;;
2656;SDS011;1338;48.176;11.792;2022-07-12T00:39:46;6.80;;;6.30;;
2656;SDS011;1338;48.176;11.792;2022-07-12T00:42:16;6.73;;;6.20;;
2656;SDS011;1338;48.176;11.792;2022-07-12T00:44:44;5.63;;;5.23;;
2656;SDS011;1338;48.176;11.792;2022-07-12T00:47:17;6.20;;;5.70;;
2656;SDS011;1338;48.176;11.792;2022-07-12T00:49:53;6.50;;;5.90;;
2656;SDS011;1338;48.176;11.792;2022-07-12T00:52:21;7.20;;;6.60;;
2656;SDS011;1338;48.176;11.792;2022-07-12T00:54:50;6.63;;;6.13;;
2656;SDS011;1338;48.176;11.792;2022-07-12T00:57:20;7.30;;;6.60;;
2656;SDS011;1338;48.176;11.792;2022-07-12T00:59:48;6.93;;;6.33;;
2656;SDS011;1338;48.176;11.792;2022-07-12T01:02:17;7.80;;;7.10;;
2656;SDS011;1338;48.176;11.792;2022-07-12T01:04:45;6.77;;;6.23;;
2656;SDS011;1338;48.176;11.792;2022-07-12T01:07:14;7.80;;;6.60;;
2656;SDS011;1338;48.176;11.792;2022-07-12T01:09:42;6.60;;;6.03;;
2656;SDS011;1338;48.176;11.792;2022-07-12T01:12:11;6.83;;;6.27;;
2656;SDS011;1338;48.176;11.792;2022-07-12T01:14:42;6.53;;;6.03;;
2656;SDS011;1338;48.176;11.792;2022-07-12T01:17:10;6.83;;;6.03;;
2656;SDS011;1338;48.176;11.792;2022-07-12T01:19:39;5.70;;;5.30;;
2656;SDS011;1338;48.176;11.792;2022-07-12T01:22:08;6.30;;;5.90;;
2656;SDS011;1338;48.176;11.792;2022-07-12T01:24:39;6.93;;;6.33;;
2656;SDS011;1338;48.176;11.792;2022-07-12T01:27:09;7.60;;;6.30;;
2656;SDS011;1338;48.176;11.792;2022-07-12T01:29:39;6.60;;;6.10;;
2656;SDS011;1338;48.176;11.792;2022-07-12T01:32:07;6.50;;;6.00;;
2656;SDS011;1338;48.176;11.792;2022-07-12T01:34:57;6.13;;;5.73;;
2656;SDS011;1338;48.176;11.792;2022-07-12T01:37:28;6.53;;;5.93;;
2656;SDS011;1338;48.176;11.792;2022-07-12T01:39:59;6.20;;;5.60;;
2656;SDS011;1338;48.176;11.792;2022-07-12T01:42:28;6.40;;;5.90;;
2656;SDS011;1338;48.176;11.792;2022-07-12T01:44:57;6.30;;;5.80;;
2656;SDS011;1338;48.176;11.792;2022-07-12T01:47:26;6.40;;;5.80;;
2656;SDS011;1338;48.176;11.792;2022-07-12T01:49:55;7.67;;;6.73;;
2656;SDS011;1338;48.176;11.792;2022-07-12T01:52:23;6.73;;;6.13;;
2656;SDS011;1338;48.176;11.792;2022-07-12T01:54:53;7.10;;;6.40;;
2656;SDS011;1338;48.176;11.792;2022-07-12T01:57:23;7.10;;;6.50;;
2656;SDS011;1338;48.176;11.792;2022-07-12T01:59:52;7.03;;;6.33;;
2656;SDS011;1338;48.176;11.792;2022-07-12T02:02:22;6.90;;;6.40;;
2656;SDS011;1338;48.176;11.792;2022-07-12T02:04:52;6.87;;;6.27;;
2656;SDS011;1338;48.176;11.792;2022-07-12T02:07:21;8.53;;;6.30;;
2656;SDS011;1338;48.176;11.792;2022-07-12T02:09:50;7.13;;;6.57;;
2656;SDS011;1338;48.176;11.792;2022-07-12T02:12:19;6.40;;;5.80;;
2656;SDS011;1338;48.176;11.792;2022-07-12T02:14:49;7.47;;;6.87;;
2656;SDS011;1338;48.176;11.792;2022-07-12T02:17:18;6.83;;;6.33;;
2656;SDS011;1338;48.176;11.792;2022-07-12T02:19:46;6.90;;;6.30;;
2656;SDS011;1338;48.176;11.792;2022-07-12T02:22:14;6.80;;;6.20;;
2656;SDS011;1338;48.176;11.792;2022-07-12T02:24:42;7.43;;;6.73;;
2656;SDS011;1338;48.176;11.792;2022-07-12T02:27:11;6.37;;;5.77;;
2656;SDS011;1338;48.176;11.792;2022-07-12T02:29:39;6.70;;;6.20;;
2656;SDS011;1338;48.176;11.792;2022-07-12T02:32:09;7.17;;;6.57;;
2656;SDS011;1338;48.176;11.792;2022-07-12T02:34:37;7.50;;;6.20;;
2656;SDS011;1338;48.176;11.792;2022-07-12T02:37:05;6.40;;;5.90;;
2656;SDS011;1338;48.176;11.792;2022-07-12T02:39:33;6.67;;;5.90;;
2656;SDS011;1338;48.176;11.792;2022-07-12T02:42:02;6.50;;;6.00;;
2656;SDS011;1338;48.176;11.792;2022-07-12T02:44:30;7.50;;;6.70;;
2656;SDS011;1338;48.176;11.792;2022-07-12T02:46:59;5.90;;;5.50;;
2656;SDS011;1338;48.176;11.792;2022-07-12T02:49:29;6.20;;;5.70;;
2656;SDS011;1338;48.176;11.792;2022-07-12T02:51:57;6.70;;;6.20;;
2656;SDS011;1338;48.176;11.792;2022-07-12T02:54:25;6.30;;;5.70;;
2656;SDS011;1338;48.176;11.792;2022-07-12T02:56:53;6.13;;;5.63;;
2656;SDS011;1338;48.176;11.792;2022-07-12T02:59:21;8.23;;;6.50;;
2656;SDS011;1338;48.176;11.792;2022-07-12T03:01:50;6.10;;;5.50;;
2656;SDS011;1338;48.176;11.792;2022-07-12T03:04:18;6.83;;;6.20;;
2656;SDS011;1338;48.176;11.792;2022-07-12T03:06:48;6.53;;;5.90;;
2656;SDS011;1338;48.176;11.792;2022-07-12T03:09:16;5.90;;;5.50;;
2656;SDS011;1338;48.176;11.792;2022-07-12T03:11:44;6.30;;;5.80;;
2656;SDS011;1338;48.176;11.792;2022-07-12T03:14:12;6.13;;;5.63;;
2656;SDS011;1338;48.176;11.792;2022-07-12T03:16:40;6.13;;;5.63;;
2656;SDS011;1338;48.176;11.792;2022-07-12T03:19:09;6.00;;;5.50;;
2656;SDS011;1338;48.176;11.792;2022-07-12T03:21:37;6.40;;;5.90;;
2656;SDS011;1338;48.176;11.792;2022-07-12T03:24:06;5.80;;;5.40;;
2656;SDS011;1338;48.176;11.792;2022-07-12T03:26:36;6.60;;;6.10;;
2656;SDS011;1338;48.176;11.792;2022-07-12T03:29:04;6.07;;;5.57;;
2656;SDS011;1338;48.176;11.792;2022-07-12T03:31:32;7.20;;;5.37;;
2656;SDS011;1338;48.176;11.792;2022-07-12T03:34:00;5.80;;;5.30;;
2656;SDS011;1338;48.176;11.792;2022-07-12T03:36:29;5.40;;;5.00;;
2656;SDS011;1338;48.176;11.792;2022-07-12T03:38:57;5.63;;;5.13;;
2656;SDS011;1338;48.176;11.792;2022-07-12T03:41:27;6.00;;;5.50;;
2656;SDS011;1338;48.176;11.792;2022-07-12T03:43:55;5.93;;;5.33;;
2656;SDS011;1338;48.176;11.792;2022-07-12T03:46:23;5.97;;;5.47;;
2656;SDS011;1338;48.176;11.792;2022-07-12T03:48:51;6.03;;;5.50;;
2656;SDS011;1338;48.176;11.792;2022-07-12T03:51:20;6.37;;;5.83;;
2656;SDS011;1338;48.176;11.792;2022-07-12T03:53:48;6.30;;;5.80;;
2656;SDS011;1338;48.176;11.792;2022-07-12T03:56:16;6.33;;;5.80;;
2656;SDS011;1338;48.176;11.792;2022-07-12T03:59:00;6.00;;;5.60;;
2656;SDS011;1338;48.176;11.792;2022-07-12T04:01:28;6.87;;;6.27;;
2656;SDS011;1338;48.176;11.792;2022-07-12T04:03:56;6.73;;;6.13;;
2656;SDS011;1338;48.176;11.792;2022-07-12T04:06:25;7.30;;;6.60;;
2656;SDS011;1338;48.176;11.792;2022-07-12T04:08:53;7.37;;;6.47;;
2656;SDS011;1338;48.176;11.792;2022-07-12T04:11:21;6.87;;;6.27;;
2656;SDS011;1338;48.176;11.792;2022-07-12T04:13:49;7.30;;;6.60;;
2656;SDS011;1338;48.176;11.792;2022-07-12T04:16:18;6.03;;;5.53;;
2656;SDS011;1338;48.176;11.792;2022-07-12T04:18:47;5.90;;;5.50;;
2656;SDS011;1338;48.176;11.792;2022-07-12T04:21:15;7.60;;;6.90;;
2656;SDS011;1338;48.176;11.792;2022-07-12T04:23:43;6.87;;;6.23;;
2656;SDS011;1338;48.176;11.792;2022-07-12T04:26:11;6.60;;;5.90;;
2656;SDS011;1338;48.176;11.792;2022-07-12T04:28:40;7.10;;;6.50;;
2656;SDS011;1338;48.176;11.792;2022-07-12T04:31:08;6.90;;;6.33;;
2656;SDS011;1338;48.176;11.792;2022-07-12T04:33:38;6.60;;;6.07;;
2656;SDS011;1338;48.176;11.792;2022-07-12T04:36:06;9.10;;;7.33;;
2656;SDS011;1338;48.176;11.792;2022-07-12T04:38:34;5.97;;;5.40;;
2656;SDS011;1338;48.176;11.792;2022-07-12T04:41:02;6.33;;;5.73;;
2656;SDS011;1338;48.176;11.792;2022-07-12T04:43:31;6.13;;;5.63;;
2656;SDS011;1338;48.176;11.792;2022-07-12T04:46:04;8.83;;;6.87;;
2656;SDS011;1338;48.176;11.792;2022-07-12T04:48:33;8.63;;;7.87;;
2656;SDS011;1338;48.176;11.792;2022-07-12T04:51:03;9.30;;;8.40;;
2656;SDS011;1338;48.176;11.792;2022-07-12T04:53:31;9.20;;;8.40;;
2656;SDS011;1338;48.176;11.792;2022-07-12T04:55:59;9.07;;;8.27;;
2656;SDS011;1338;48.176;11.792;2022-07-12T04:58:28;9.20;;;8.30;;
2656;SDS011;1338;48.176;11.792;2022-07-12T05:00:56;10.33;;;7.27;;
2656;SDS011;1338;48.176;11.792;2022-07-12T05:03:25;8.57;;;7.73;;
2656;SDS011;1338;48.176;11.792;2022-07-12T05:05:53;8.73;;;7.97;;
2656;SDS011;1338;48.176;11.792;2022-07-12T05:08:23;8.90;;;8.00;;
2656;SDS011;1338;48.176;11.792;2022-07-12T05:10:52;8.73;;;8.03;;
2656;SDS011;1338;48.176;11.792;2022-07-12T05:13:20;8.87;;;7.80;;
2656;SDS011;1338;48.176;11.792;2022-07-12T05:15:48;7.50;;;6.90;;
2656;SDS011;1338;48.176;11.792;2022-07-12T05:18:16;8.43;;;7.63;;
2656;SDS011;1338;48.176;11.792;2022-07-12T05:20:44;7.70;;;7.10;;
2656;SDS011;1338;48.176;11.792;2022-07-12T05:23:17;7.87;;;7.17;;
2656;SDS011;1338;48.176;11.792;2022-07-12T05:25:47;8.63;;;7.90;;
2656;SDS011;1338;48.176;11.792;2022-07-12T05:28:15;9.10;;;7.20;;
2656;SDS011;1338;48.176;11.792;2022-07-12T05:30:44;7.77;;;7.07;;
2656;SDS011;1338;48.176;11.792;2022-07-12T05:33:12;7.67;;;6.97;;
2656;SDS011;1338;48.176;11.792;2022-07-12T05:35:40;5.97;;;5.57;;
2656;SDS011;1338;48.176;11.792;2022-07-12T05:38:08;6.00;;;5.50;;
2656;SDS011;1338;48.176;11.792;2022-07-12T05:40:37;5.80;;;5.30;;
2656;SDS011;1338;48.176;11.792;2022-07-12T05:43:06;6.00;;;5.50;;
2656;SDS011;1338;48.176;11.792;2022-07-12T05:45:34;5.83;;;5.10;;
2656;SDS011;1338;48.176;11.792;2022-07-12T05:48:02;4.10;;;3.70;;
2656;SDS011;1338;48.176;11.792;2022-07-12T05:50:31;4.73;;;4.33;;
2656;SDS011;1338;48.176;11.792;2022-07-12T05:52:59;5.00;;;4.50;;
2656;SDS011;1338;48.176;11.792;2022-07-12T05:55:57;4.60;;;4.20;;
2656;SDS011;1338;48.176;11.792;2022-07-12T05:58:26;4.80;;;4.40;;
2656;SDS011;1338;48.176;11.792;2022-07-12T06:00:54;4.70;;;4.30;;
2656;SDS011;1338;48.176;11.792;2022-07-12T06:03:23;3.53;;;3.33;;
2656;SDS011;1338;48.176;11.792;2022-07-12T06:05:51;3.63;;;3.43;;
2656;SDS011;1338;48.176;11.792;2022-07-12T06:08:20;3.50;;;3.20;;
2656;SDS011;1338;48.176;11.792;2022-07-12T06:10:48;3.10;;;2.90;;
2656;SDS011;1338;48.176;11.792;2022-07-12T06:13:16;2.90;;;2.70;;
2656;SDS011;1338;48.176;11.792;2022-07-12T06:15:45;3.00;;;2.80;;
2656;SDS011;1338;48.176;11.792;2022-07-12T06:18:14;3.00;;;2.80;;
2656;SDS011;1338;48.176;11.792;2022-07-12T06:20:42;4.47;;;3.10;;
2656;SDS011;1338;48.176;11.792;2022-07-12T06:23:11;2.77;;;2.57;;
2656;SDS011;1338;48.176;11.792;2022-07-12T06:25:39;3.90;;;2.77;;
2656;SDS011;1338;48.176;11.792;2022-07-12T06:28:09;3.23;;;3.03;;
2656;SDS011;1338;48.176;11.792;2022-07-12T06:30:38;10.37;;;3.83;;
2656;SDS011;1338;48.176;11.792;2022-07-12T06:33:08;2.90;;;2.70;;
2656;SDS011;1338;48.176;11.792;2022-07-12T06:35:36;3.43;;;2.60;;
2656;SDS011;1338;48.176;11.792;2022-07-12T06:38:04;2.70;;;2.50;;
2656;SDS011;1338;48.176;11.792;2022-07-12T06:40:32;3.03;;;2.73;;
2656;SDS011;1338;48.176;11.792;2022-07-12T06:43:00;2.93;;;2.67;;
2656;SDS011;1338;48.176;11.792;2022-07-12T06:45:29;2.23;;;2.13;;
2656;SDS011;1338;48.176;11.792;2022-07-12T06:47:57;2.90;;;2.70;;
2656;SDS011;1338;48.176;11.792;2022-07-12T06:50:27;3.30;;;2.60;;
2656;SDS011;1338;48.176;11.792;2022-07-12T06:52:55;2.30;;;2.20;;
2656;SDS011;1338;48.176;11.792;2022-07-12T06:55:23;2.50;;;2.30;;
2656;SDS011;1338;48.176;11.792;2022-07-12T06:57:51;2.70;;;2.50;;
2656;SDS011;1338;48.176;11.792;2022-07-12T07:00:19;2.27;;;2.10;;
2656;SDS011;1338;48.176;11.792;2022-07-12T07:02:47;2.80;;;2.60;;
2656;SDS011;1338;48.176;11.792;2022-07-12T07:05:16;3.53;;;2.97;;
2656;SDS011;1338;48.176;11.792;2022-07-12T07:07:47;2.73;;;2.53;;
2656;SDS011;1338;48.176;11.792;2022-07-12T07:10:15;2.40;;;2.20;;
2656;SDS011;1338;48.176;11.792;2022-07-12T07:12:43;2.60;;;2.40;;
2656;SDS011;1338;48.176;11.792;2022-07-12T07:15:11;3.67;;;2.67;;
2656;SDS011;1338;48.176;11.792;2022-07-12T07:17:42;2.93;;;2.73;;
2656;SDS011;1338;48.176;11.792;2022-07-12T07:20:10;2.30;;;2.20;;
2656;SDS011;1338;48.176;11.792;2022-07-12T07:22:39;3.87;;;3.20;;
2656;SDS011;1338;48.176;11.792;2022-07-12T07:25:08;3.37;;;2.40;;
2656;SDS011;1338;48.176;11.792;2022-07-12T07:27:37;3.20;;;3.00;;
2656;SDS011;1338;48.176;11.792;2022-07-12T07:30:06;3.23;;;3.03;;
2656;SDS011;1338;48.176;11.792;2022-07-12T07:32:52;3.67;;;3.10;;
2656;SDS011;1338;48.176;11.792;2022-07-12T07:35:22;2.83;;;2.60;;
2656;SDS011;1338;48.176;11.792;2022-07-12T07:37:50;3.30;;;3.00;;
2656;SDS011;1338;48.176;11.792;2022-07-12T07:40:20;3.20;;;3.00;;
2656;SDS011;1338;48.176;11.792;2022-07-12T07:42:48;2.67;;;2.47;;
2656;SDS011;1338;48.176;11.792;2022-07-12T07:45:17;2.70;;;2.50;;
2656;SDS011;1338;48.176;11.792;2022-07-12T07:47:46;2.70;;;2.50;;
2656;SDS011;1338;48.176;11.792;2022-07-12T07:50:35;3.10;;;2.90;;
2656;SDS011;1338;48.176;11.792;2022-07-12T07:53:04;2.80;;;2.60;;
2656;SDS011;1338;48.176;11.792;2022-07-12T07:55:33;3.77;;;2.90;;
2656;SDS011;1338;48.176;11.792;2022-07-12T07:58:01;4.10;;;3.27;;
2656;SDS011;1338;48.176;11.792;2022-07-12T08:00:30;2.73;;;2.53;;
2656;SDS011;1338;48.176;11.792;2022-07-12T08:02:58;3.60;;;3.30;;
2656;SDS011;1338;48.176;11.792;2022-07-12T08:05:27;6.03;;;3.07;;
2656;SDS011;1338;48.176;11.792;2022-07-12T08:07:55;2.43;;;2.23;;
2656;SDS011;1338;48.176;11.792;2022-07-12T08:10:24;3.00;;;2.80;;
2656;SDS011;1338;48.176;11.792;2022-07-12T08:12:54;3.30;;;3.10;;
2656;SDS011;1338;48.176;11.792;2022-07-12T08:15:22;2.43;;;2.23;;
2656;SDS011;1338;48.176;11.792;2022-07-12T08:17:50;2.93;;;2.73;;
2656;SDS011;1338;48.176;11.792;2022-07-12T08:20:21;2.70;;;2.50;;
2656;SDS011;1338;48.176;11.792;2022-07-12T08:23:10;2.97;;;2.50;;
2656;SDS011;1338;48.176;11.792;2022-07-12T08:25:39;2.93;;;2.73;;
2656;SDS011;1338;48.176;11.792;2022-07-12T08:28:08;3.10;;;2.90;;
2656;SDS011;1338;48.176;11.792;2022-07-12T08:30:36;2.80;;;2.50;;
2656;SDS011;1338;48.176;11.792;2022-07-12T08:33:11;3.30;;;3.10;;
2656;SDS011;1338;48.176;11.792;2022-07-12T08:35:39;3.23;;;2.90;;
2656;SDS011;1338;48.176;11.792;2022-07-12T08:38:08;3.60;;;2.50;;
2656;SDS011;1338;48.176;11.792;2022-07-12T08:40:49;2.90;;;2.70;;
2656;SDS011;1338;48.176;11.792;2022-07-12T08:43:17;3.37;;;2.57;;
2656;SDS011;1338;48.176;11.792;2022-07-12T08:45:46;5.53;;;2.73;;
2656;SDS011;1338;48.176;11.792;2022-07-12T08:48:15;2.67;;;2.43;;
2656;SDS011;1338;48.176;11.792;2022-07-12T08:50:43;2.73;;;2.40;;
2656;SDS011;1338;48.176;11.792;2022-07-12T08:53:27;2.67;;;2.47;;
2656;SDS011;1338;48.176;11.792;2022-07-12T08:55:57;2.80;;;2.60;;
2656;SDS011;1338;48.176;11.792;2022-07-12T08:58:25;2.73;;;2.53;;
2656;SDS011;1338;48.176;11.792;2022-07-12T09:00:53;2.97;;;2.60;;
2656;SDS011;1338;48.176;11.792;2022-07-12T09:03:22;2.50;;;2.30;;
2656;SDS011;1338;48.176;11.792;2022-07-12T09:05:51;2.40;;;2.20;;
2656;SDS011;1338;48.176;11.792;2022-07-12T09:08:27;2.90;;;2.70;;
2656;SDS011;1338;48.176;11.792;2022-07-12T09:10:59;2.10;;;2.00;;
2656;SDS011;1338;48.176;11.792;2022-07-12T09:13:48;2.60;;;2.30;;
2656;SDS011;1338;48.176;11.792;2022-07-12T09:16:18;2.60;;;2.40;;
2656;SDS011;1338;48.176;11.792;2022-07-12T09:18:47;2.23;;;2.13;;
2656;SDS011;1338;48.176;11.792;2022-07-12T09:21:23;2.90;;;2.40;;
2656;SDS011;1338;48.176;11.792;2022-07-12T09:23:53;3.07;;;2.87;;
2656;SDS011;1338;48.176;11.792;2022-07-12T09:26:24;3.20;;;2.43;;
2656;SDS011;1338;48.176;11.792;2022-07-12T09:29:04;2.50;;;2.30;;
2656;SDS011;1338;48.176;11.792;2022-07-12T09:31:40;3.30;;;3.00;;
2656;SDS011;1338;48.176;11.792;2022-07-12T09:34:30;2.80;;;2.60;;
2656;SDS011;1338;48.176;11.792;2022-07-12T09:37:15;2.73;;;2.53;;
2656;SDS011;1338;48.176;11.792;2022-07-12T09:39:44;2.70;;;2.50;;
2656;SDS011;1338;48.176;11.792;2022-07-12T09:42:14;2.60;;;2.40;;
2656;SDS011;1338;48.176;11.792;2022-07-12T09:44:42;3.77;;;2.50;;
2656;SDS011;1338;48.176;11.792;2022-07-12T09:47:11;2.63;;;2.43;;
2656;SDS011;1338;48.176;11.792;2022-07-12T09:49:42;2.57;;;2.37;;
2656;SDS011;1338;48.176;11.792;2022-07-12T09:52:11;2.50;;;2.30;;
2656;SDS011;1338;48.176;11.792;2022-07-12T09:54:49;2.40;;;2.30;;
2656;SDS011;1338;48.176;11.792;2022-07-12T09:57:21;2.37;;;2.17;;
2656;SDS011;1338;48.176;11.792;2022-07-12T09:59:53;2.50;;;2.30;;
2656;SDS011;1338;48.176;11.792;2022-07-12T10:02:21;2.70;;;2.50;;
2656;SDS011;1338;48.176;11.792;2022-07-12T10:04:50;2.70;;;2.50;;
2656;SDS011;1338;48.176;11.792;2022-07-12T10:07:19;2.50;;;2.30;;
2656;SDS011;1338;48.176;11.792;2022-07-12T10:09:48;2.80;;;2.60;;
2656;SDS011;1338;48.176;11.792;2022-07-12T10:12:19;3.50;;;2.30;;
2656;SDS011;1338;48.176;11.792;2022-07-12T10:14:51;2.60;;;2.20;;
2656;SDS011;1338;48.176;11.792;2022-07-12T10:17:24;2.30;;;2.20;;
2656;SDS011;1338;48.176;11.792;2022-07-12T10:22:43;2.40;;;2.30;;
2656;SDS011;1338;48.176;11.792;2022-07-12T10:25:27;2.17;;;2.07;;
2656;SDS011;1338;48.176;11.792;2022-07-12T10:27:59;2.23;;;2.13;;
2656;SDS011;1338;48.176;11.792;2022-07-12T10:30:28;2.80;;;2.60;;
2656;SDS011;1338;48.176;11.792;2022-07-12T10:32:57;2.60;;;2.40;;
2656;SDS011;1338;48.176;11.792;2022-07-12T10:35:27;5.20;;;2.60;;
2656;SDS011;1338;48.176;11.792;2022-07-12T10:38:15;4.27;;;2.33;;
2656;SDS011;1338;48.176;11.792;2022-07-12T10:40:45;2.00;;;1.90;;
2656;SDS011;1338;48.176;11.792;2022-07-12T10:43:16;2.30;;;2.10;;
2656;SDS011;1338;48.176;11.792;2022-07-12T10:45:47;2.00;;;1.87;;
2656;SDS011;1338;48.176;11.792;2022-07-12T10:48:23;2.30;;;2.10;;
2656;SDS011;1338;48.176;11.792;2022-07-12T10:50:52;1.97;;;1.87;;
2656;SDS011;1338;48.176;11.792;2022-07-12T10:53:26;2.07;;;1.97;;
2656;SDS011;1338;48.176;11.792;2022-07-12T10:56:12;2.10;;;2.00;;
2656;SDS011;1338;48.176;11.792;2022-07-12T10:58:44;2.10;;;2.00;;
2656;SDS011;1338;48.176;11.792;2022-07-12T11:01:14;2.20;;;1.87;;
2656;SDS011;1338;48.176;11.792;2022-07-12T11:03:45;2.27;;;2.07;;
2656;SDS011;1338;48.176;11.792;2022-07-12T11:06:14;1.93;;;1.83;;
2656;SDS011;1338;48.176;11.792;2022-07-12T11:08:49;2.30;;;2.20;;
2656;SDS011;1338;48.176;11.792;2022-07-12T11:11:23;2.40;;;2.30;;
2656;SDS011;1338;48.176;11.792;2022-07-12T11:13:54;2.37;;;2.17;;
2656;SDS011;1338;48.176;11.792;2022-07-12T11:16:23;2.30;;;2.20;;
2656;SDS011;1338;48.176;11.792;2022-07-12T11:18:53;2.23;;;2.13;;
2656;SDS011;1338;48.176;11.792;2022-07-12T11:21:22;2.70;;;2.30;;
2656;SDS011;1338;48.176;11.792;2022-07-12T11:23:51;2.20;;;2.00;;
2656;SDS011;1338;48.176;11.792;2022-07-12T11:26:20;2.03;;;1.93;;
2656;SDS011;1338;48.176;11.792;2022-07-12T11:28:49;2.60;;;2.50;;
2656;SDS011;1338;48.176;11.792;2022-07-12T11:31:19;3.70;;;2.07;;
2656;SDS011;1338;48.176;11.792;2022-07-12T11:33:48;2.00;;;1.90;;
2656;SDS011;1338;48.176;11.792;2022-07-12T11:36:18;2.20;;;2.10;;
2656;SDS011;1338;48.176;11.792;2022-07-12T11:38:47;2.00;;;1.90;;
2656;SDS011;1338;48.176;11.792;2022-07-12T11:41:16;2.10;;;2.00;;
2656;SDS011;1338;48.176;11.792;2022-07-12T11:43:46;2.20;;;2.00;;
2656;SDS011;1338;48.176;11.792;2022-07-12T11:50:10;2.10;;;2.00;;
2656;SDS011;1338;48.176;11.792;2022-07-12T11:52:39;2.20;;;2.00;;
2656;SDS011;1338;48.176;11.792;2022-07-12T11:55:08;2.20;;;2.10;;
2656;SDS011;1338;48.176;11.792;2022-07-12T11:57:36;2.40;;;2.20;;
2656;SDS011;1338;48.176;11.792;2022-07-12T12:00:14;2.40;;;2.30;;
2656;SDS011;1338;48.176;11.792;2022-07-12T12:02:44;2.40;;;2.30;;
2656;SDS011;1338;48.176;11.792;2022-07-12T12:05:14;2.30;;;2.10;;
2656;SDS011;1338;48.176;11.792;2022-07-12T12:07:43;1.93;;;1.73;;
2656;SDS011;1338;48.176;11.792;2022-07-12T12:10:18;2.90;;;2.23;;
2656;SDS011;1338;48.176;11.792;2022-07-12T12:12:48;2.40;;;2.30;;
2656;SDS011;1338;48.176;11.792;2022-07-12T12:19:31;2.70;;;2.50;;
2656;SDS011;1338;48.176;11.792;2022-07-12T12:22:01;2.40;;;2.20;;
2656;SDS011;1338;48.176;11.792;2022-07-12T12:24:29;2.00;;;1.90;;
2656;SDS011;1338;48.176;11.792;2022-07-12T12:26:58;2.40;;;2.20;;
2656;SDS011;1338;48.176;11.792;2022-07-12T12:29:39;2.07;;;1.97;;
2656;SDS011;1338;48.176;11.792;2022-07-12T12:32:16;2.30;;;2.10;;
2656;SDS011;1338;48.176;11.792;2022-07-12T12:37:35;2.17;;;1.97;;
2656;SDS011;1338;48.176;11.792;2022-07-12T12:40:04;2.53;;;2.00;;
2656;SDS011;1338;48.176;11.792;2022-07-12T12:42:33;2.30;;;2.03;;
2656;SDS011;1338;48.176;11.792;2022-07-12T12:45:03;2.50;;;2.30;;
2656;SDS011;1338;48.176;11.792;2022-07-12T12:50:44;2.60;;;2.40;;
2656;SDS011;1338;48.176;11.792;2022-07-12T12:53:22;2.27;;;2.10;;
2656;SDS011;1338;48.176;11.792;2022-07-12T12:55:52;2.40;;;2.17;;
2656;SDS011;1338;48.176;11.792;2022-07-12T12:58:21;2.50;;;2.33;;
2656;SDS011;1338;48.176;11.792;2022-07-12T13:00:51;2.57;;;2.37;;
2656;SDS011;1338;48.176;11.792;2022-07-12T13:03:21;2.20;;;2.10;;
2656;SDS011;1338;48.176;11.792;2022-07-12T13:05:51;2.50;;;2.30;;
2656;SDS011;1338;48.176;11.792;2022-07-12T13:08:20;2.47;;;2.30;;
2656;SDS011;1338;48.176;11.792;2022-07-12T13:10:50;2.30;;;2.20;;
2656;SDS011;1338;48.176;11.792;2022-07-12T13:13:32;2.17;;;2.07;;
2656;SDS011;1338;48.176;11.792;2022-07-12T13:16:01;2.60;;;2.30;;
2656;SDS011;1338;48.176;11.792;2022-07-12T13:18:29;2.40;;;2.30;;
2656;SDS011;1338;48.176;11.792;2022-07-12T13:20:58;2.43;;;2.23;;
2656;SDS011;1338;48.176;11.792;2022-07-12T13:23:28;2.43;;;2.23;;
2656;SDS011;1338;48.176;11.792;2022-07-12T13:25:56;2.50;;;2.30;;
2656;SDS011;1338;48.176;11.792;2022-07-12T13:28:24;2.43;;;2.23;;
2656;SDS011;1338;48.176;11.792;2022-07-12T13:30:52;2.77;;;2.30;;
2656;SDS011;1338;48.176;11.792;2022-07-12T13:33:21;3.20;;;2.20;;
2656;SDS011;1338;48.176;11.792;2022-07-12T13:35:50;2.33;;;2.23;;
2656;SDS011;1338;48.176;11.792;2022-07-12T13:38:18;2.30;;;2.10;;
2656;SDS011;1338;48.176;11.792;2022-07-12T13:40:48;2.27;;;2.17;;
2656;SDS011;1338;48.176;11.792;2022-07-12T13:43:17;2.30;;;2.20;;
2656;SDS011;1338;48.176;11.792;2022-07-12T13:45:45;2.40;;;2.27;;
2656;SDS011;1338;48.176;11.792;2022-07-12T13:48:17;2.30;;;2.20;;
2656;SDS011;1338;48.176;11.792;2022-07-12T13:50:46;3.23;;;2.67;;
2656;SDS011;1338;48.176;11.792;2022-07-12T13:53:34;2.70;;;2.30;;
2656;SDS011;1338;48.176;11.792;2022-07-12T13:56:05;2.53;;;2.33;;
2656;SDS011;1338;48.176;11.792;2022-07-12T13:58:33;2.80;;;2.60;;
2656;SDS011;1338;48.176;11.792;2022-07-12T14:01:01;2.50;;;2.30;;
2656;SDS011;1338;48.176;11.792;2022-07-12T14:03:30;2.60;;;2.37;;
2656;SDS011;1338;48.176;11.792;2022-07-12T14:05:58;2.70;;;2.50;;
2656;SDS011;1338;48.176;11.792;2022-07-12T14:08:27;2.57;;;2.37;;
2656;SDS011;1338;48.176;11.792;2022-07-12T14:10:55;2.40;;;2.30;;
2656;SDS011;1338;48.176;11.792;2022-07-12T14:13:25;2.83;;;2.50;;
2656;SDS011;1338;48.176;11.792;2022-07-12T14:15:54;4.03;;;2.40;;
2656;SDS011;1338;48.176;11.792;2022-07-12T14:18:23;2.63;;;2.03;;
2656;SDS011;1338;48.176;11.792;2022-07-12T14:20:51;2.30;;;2.20;;
2656;SDS011;1338;48.176;11.792;2022-07-12T14:23:20;2.27;;;2.10;;
2656;SDS011;1338;48.176;11.792;2022-07-12T14:25:48;2.30;;;2.07;;
2656;SDS011;1338;48.176;11.792;2022-07-12T14:28:17;2.40;;;2.20;;
2656;SDS011;1338;48.176;11.792;2022-07-12T14:30:46;2.83;;;2.63;;
2656;SDS011;1338;48.176;11.792;2022-07-12T14:33:15;2.13;;;2.03;;
2656;SDS011;1338;48.176;11.792;2022-07-12T14:35:43;2.57;;;2.37;;
2656;SDS011;1338;48.176;11.792;2022-07-12T14:38:12;4.90;;;2.47;;
2656;SDS011;1338;48.176;11.792;2022-07-12T14:40:41;2.70;;;2.30;;
2656;SDS011;1338;48.176;11.792;2022-07-12T14:43:09;2.37;;;2.17;;
2656;SDS011;1338;48.176;11.792;2022-07-12T14:45:38;2.60;;;2.40;;
2656;SDS011;1338;48.176;11.792;2022-07-12T14:48:10;2.40;;;2.20;;
2656;SDS011;1338;48.176;11.792;2022-07-12T14:50:38;2.10;;;2.00;;
2656;SDS011;1338;48.176;11.792;2022-07-12T14:53:07;3.30;;;2.50;;
2656;SDS011;1338;48.176;11.792;2022-07-12T14:55:35;2.23;;;2.13;;
2656;SDS011;1338;48.176;11.792;2022-07-12T14:58:03;2.27;;;2.17;;
2656;SDS011;1338;48.176;11.792;2022-07-12T15:00:33;2.23;;;2.13;;
2656;SDS011;1338;48.176;11.792;2022-07-12T15:03:02;2.40;;;2.20;;
2656;SDS011;1338;48.176;11.792;2022-07-12T15:05:32;2.30;;;2.10;;
2656;SDS011;1338;48.176;11.792;2022-07-12T15:08:01;2.07;;;1.97;;
2656;SDS011;1338;48.176;11.792;2022-07-12T15:10:29;2.27;;;2.13;;
2656;SDS011;1338;48.176;11.792;2022-07-12T15:12:58;2.20;;;2.10;;
2656;SDS011;1338;48.176;11.792;2022-07-12T15:15:26;3.43;;;2.50;;
2656;SDS011;1338;48.176;11.792;2022-07-12T15:17:54;2.30;;;2.10;;
2656;SDS011;1338;48.176;11.792;2022-07-12T15:20:23;2.27;;;2.10;;
2656;SDS011;1338;48.176;11.792;2022-07-12T15:23:00;2.70;;;2.50;;
2656;SDS011;1338;48.176;11.792;2022-07-12T15:25:29;2.20;;;2.10;;
2656;SDS011;1338;48.176;11.792;2022-07-12T15:27:59;2.17;;;2.07;;
2656;SDS011;1338;48.176;11.792;2022-07-12T15:30:27;2.30;;;2.20;;
2656;SDS011;1338;48.176;11.792;2022-07-12T15:32:55;2.27;;;2.07;;